Time;durP1;ratioP1;P1;durP2;ratioP2;P2;SDS_P1;SDS_P2;PMS_P1;PMS_P2;Temp;Humidity;BMP_temperature;BMP_pressure;BME280_temperature;BME280_humidity;BME280_pressure;Samples;Min_cycle;Max_cycle;Signal;HPM_P1;HPM_P2
2022/06/13 00:01:03;;;;;;;3.38;1.70;;;;;;;20.15;52.64;100256.97;5005220;28;20022;-82
2022/06/13 00:03:28;;;;;;;5.15;1.80;;;;;;;20.10;52.28;100257.53;4981722;28;20034;-82
2022/06/13 00:05:54;;;;;;;3.30;1.92;;;;;;;20.12;52.64;100251.91;4990308;28;20038;-83
2022/06/13 00:08:19;;;;;;;4.30;2.00;;;;;;;20.10;53.04;100246.69;4997129;28;20053;-83
2022/06/13 00:10:44;;;;;;;3.75;1.75;;;;;;;20.09;52.83;100242.28;4996974;28;20080;-83
2022/06/13 00:13:10;;;;;;;3.33;1.80;;;;;;;20.05;52.75;100238.28;4999652;28;20158;-82
2022/06/13 00:15:35;;;;;;;3.15;1.98;;;;;;;20.05;53.26;100241.00;5004684;28;20018;-82
2022/06/13 00:18:00;;;;;;;4.07;1.75;;;;;;;20.03;52.85;100240.34;4995927;28;20483;-83
2022/06/13 00:20:26;;;;;;;3.25;2.17;;;;;;;19.97;53.32;100235.69;5004930;28;20030;-84
2022/06/13 00:22:51;;;;;;;5.75;3.20;;;;;;;19.88;53.82;100234.13;4981741;28;20027;-82
2022/06/13 00:25:16;;;;;;;4.75;3.15;;;;;;;19.94;53.07;100225.22;4986441;28;20046;-83
2022/06/13 00:27:42;;;;;;;5.50;1.92;;;;;;;19.73;53.63;100230.56;4995409;28;20044;-82
2022/06/13 00:30:09;;;;;;;2.92;2.03;;;;;;;19.52;54.16;100220.47;4994798;28;20483;-82
2022/06/13 00:32:34;;;;;;;5.50;1.98;;;;;;;19.34;54.51;100223.56;5002151;28;20026;-83
2022/06/13 00:34:59;;;;;;;5.40;2.22;;;;;;;19.41;54.21;100224.53;5003219;28;20057;-83
2022/06/13 00:37:25;;;;;;;3.85;1.90;;;;;;;19.57;54.11;100234.34;4996346;28;20042;-85
2022/06/13 00:39:50;;;;;;;4.30;2.00;;;;;;;19.57;54.27;100222.66;4994335;28;20025;-82
2022/06/13 00:42:19;;;;;;;3.28;1.90;;;;;;;19.55;54.55;100230.16;4988181;28;20022;-82
2022/06/13 00:45:04;;;;;;;3.47;2.10;;;;;;;19.56;54.46;100231.81;4979813;28;20135;-82
2022/06/13 00:47:29;;;;;;;3.95;1.90;;;;;;;19.57;53.56;100231.63;4995298;28;20041;-82
2022/06/13 00:49:55;;;;;;;4.03;2.00;;;;;;;19.52;53.60;100225.06;4997083;28;20041;-82
2022/06/13 00:52:24;;;;;;;3.72;2.05;;;;;;;19.44;54.72;100224.16;4986943;28;20025;-83
2022/06/13 00:54:50;;;;;;;3.25;2.10;;;;;;;19.55;53.58;100222.84;4984389;28;20025;-81
2022/06/13 00:57:19;;;;;;;3.60;2.05;;;;;;;19.52;54.23;100217.78;4995244;28;20042;-83
2022/06/13 00:59:46;;;;;;;3.00;2.05;;;;;;;19.38;54.19;100219.44;4994929;28;20034;-83
2022/06/13 01:02:14;;;;;;;4.20;2.08;;;;;;;19.35;54.26;100208.97;4998589;28;20380;-83
2022/06/13 01:04:42;;;;;;;3.33;1.90;;;;;;;19.43;54.89;100199.91;4988984;28;20026;-83
2022/06/13 01:07:09;;;;;;;5.45;2.20;;;;;;;19.45;54.31;100195.97;5002710;28;20030;-83
2022/06/13 01:12:20;;;;;;;6.38;3.78;;;;;;;19.30;54.70;100192.44;4998847;28;20095;-82
2022/06/13 01:14:55;;;;;;;4.00;2.25;;;;;;;19.27;54.71;100202.81;4995039;28;20045;-83
2022/06/13 01:17:50;;;;;;;3.90;2.10;;;;;;;19.29;54.67;100203.47;5003122;28;20044;-82
2022/06/13 01:20:26;;;;;;;5.03;2.35;;;;;;;19.07;54.98;100205.25;4997652;28;20041;-82
2022/06/13 01:23:20;;;;;;;3.47;2.10;;;;;;;19.08;54.95;100212.34;4994517;28;20499;-83
2022/06/13 01:25:52;;;;;;;3.55;1.92;;;;;;;19.13;54.66;100209.94;4997197;28;20034;-83
2022/06/13 01:28:44;;;;;;;4.10;2.15;;;;;;;19.05;54.37;100213.56;4997929;28;20022;-82
2022/06/13 01:31:18;;;;;;;3.58;1.88;;;;;;;19.01;54.66;100204.13;5000233;28;20034;-83
2022/06/13 01:34:05;;;;;;;4.60;1.98;;;;;;;19.04;54.55;100217.31;4994040;28;20057;-82
2022/06/13 01:37:02;;;;;;;3.38;1.90;;;;;;;19.06;54.67;100220.69;4994009;28;20029;-83
2022/06/13 01:39:49;;;;;;;4.07;1.70;;;;;;;19.08;55.40;100223.22;4996425;28;20126;-82
2022/06/13 01:42:36;;;;;;;4.80;2.05;;;;;;;19.02;55.38;100230.22;4996783;28;20039;-82
2022/06/13 01:45:26;;;;;;;4.53;1.98;;;;;;;19.06;55.23;100223.38;4999579;28;20479;-85
2022/06/13 01:48:02;;;;;;;4.75;2.25;;;;;;;19.07;55.07;100227.78;4999254;28;20030;-82
2022/06/13 01:51:26;;;;;;;6.22;2.20;;;;;;;19.05;55.16;100239.84;5007352;28;20030;-83
2022/06/13 01:54:08;;;;;;;3.92;2.03;;;;;;;18.95;54.65;100228.44;4921582;29;20039;-82
2022/06/13 01:56:40;;;;;;;3.20;1.92;;;;;;;18.98;54.74;100223.47;4934903;29;20060;-83
2022/06/13 01:59:19;;;;;;;4.10;1.80;;;;;;;18.84;54.47;100222.41;4973828;28;20046;-85
2022/06/13 02:01:50;;;;;;;4.03;2.30;;;;;;;18.85;54.91;100226.81;4999017;28;20033;-82
2022/06/13 02:04:27;;;;;;;4.47;2.10;;;;;;;18.88;54.86;100231.84;5016365;28;20030;-83
2022/06/13 02:07:20;;;;;;;3.85;2.10;;;;;;;18.90;54.98;100237.09;4991633;28;20044;-82
2022/06/13 02:10:00;;;;;;;3.63;1.95;;;;;;;18.76;54.38;100240.63;5000158;28;20076;-83
2022/06/13 02:12:28;;;;;;;3.28;1.95;;;;;;;18.77;54.90;100239.59;4998913;28;20065;-82
2022/06/13 02:15:03;;;;;;;4.90;2.25;;;;;;;18.82;54.34;100245.31;5016397;28;20312;-82
2022/06/13 02:17:32;;;;;;;5.60;1.95;;;;;;;18.83;55.13;100241.56;4997933;28;20049;-83
2022/06/13 02:20:06;;;;;;;3.80;1.75;;;;;;;18.76;54.64;100238.75;4998340;28;20026;-81
2022/06/13 02:22:39;;;;;;;3.38;1.90;;;;;;;18.83;54.24;100238.84;4984865;28;20116;-82
2022/06/13 02:25:17;;;;;;;4.32;1.90;;;;;;;18.89;54.87;100235.41;5004864;28;20041;-83
2022/06/13 02:27:45;;;;;;;2.97;1.85;;;;;;;18.90;54.31;100228.97;4990074;28;20046;-82
2022/06/13 02:30:15;;;;;;;2.85;1.90;;;;;;;18.88;54.33;100228.31;4998199;28;20404;-83
2022/06/13 02:32:47;;;;;;;4.05;1.77;;;;;;;18.86;54.70;100220.34;4999492;28;20022;-82
2022/06/13 02:35:17;;;;;;;2.58;1.77;;;;;;;18.84;54.71;100221.56;5014173;28;20116;-82
2022/06/13 02:37:49;;;;;;;3.40;1.88;;;;;;;18.74;54.04;100223.72;5013911;28;20026;-82
2022/06/13 02:40:23;;;;;;;3.47;2.08;;;;;;;18.61;55.14;100212.63;4999260;28;20117;-82
2022/06/13 02:42:54;;;;;;;3.47;1.80;;;;;;;18.65;55.45;100214.81;5000607;28;20452;-82
2022/06/13 02:45:23;;;;;;;3.22;1.80;;;;;;;18.66;55.19;100202.97;5000717;28;20045;-85
2022/06/13 02:48:03;;;;;;;;;;;;;;;18.69;55.23;100199.03;4998129;28;20084;-82
2022/06/13 02:51:03;;;;;;;3.25;1.70;;;;;;;18.68;55.64;100191.94;5005421;28;20360;-82
2022/06/13 02:53:52;;;;;;;4.78;2.00;;;;;;;18.67;55.28;100198.38;4968748;28;20166;-83
2022/06/13 02:56:36;;;;;;;7.88;2.55;;;;;;;18.63;54.65;100191.66;5000883;28;20547;-83
2022/06/13 02:59:20;;;;;;;3.78;2.00;;;;;;;18.63;54.85;100191.66;5013973;28;20030;-82
2022/06/13 03:01:47;;;;;;;5.18;2.13;;;;;;;18.62;54.70;100188.09;4996414;28;20057;-83
2022/06/13 03:04:43;;;;;;;3.80;2.03;;;;;;;18.58;54.90;100189.47;4996345;28;20033;-82
2022/06/13 03:07:25;;;;;;;3.22;1.90;;;;;;;18.55;55.39;100190.66;4964445;28;20104;-83
2022/06/13 03:09:51;;;;;;;4.22;1.80;;;;;;;18.54;55.72;100197.13;4998191;28;20022;-83
2022/06/13 03:12:27;;;;;;;4.13;2.03;;;;;;;18.50;55.45;100201.22;5005768;28;20469;-83
2022/06/13 03:15:14;;;;;;;3.63;2.00;;;;;;;18.41;56.02;100204.16;5014167;28;20077;-82
2022/06/13 03:17:47;;;;;;;3.30;1.92;;;;;;;18.39;55.46;100201.63;5005369;28;20061;-82
2022/06/13 03:20:35;;;;;;;4.18;1.65;;;;;;;18.39;55.39;100201.63;5013706;28;20116;-82
2022/06/13 03:23:07;;;;;;;4.75;1.80;;;;;;;18.42;56.12;100201.25;4996588;28;20077;-85
2022/06/13 03:25:42;;;;;;;4.00;1.80;;;;;;;18.42;55.76;100200.41;4997470;28;20109;-83
2022/06/13 03:28:13;;;;;;;2.83;1.60;;;;;;;18.44;55.82;100195.66;5002494;28;20038;-82
2022/06/13 03:30:43;;;;;;;4.40;1.98;;;;;;;18.40;55.83;100195.19;4995919;28;20026;-84
2022/06/13 03:36:01;;;;;;;5.70;2.08;;;;;;;18.37;55.72;100195.56;5011895;28;20440;-82
2022/06/13 03:38:32;;;;;;;4.75;2.22;;;;;;;18.40;55.54;100211.44;4995685;28;20049;-83
2022/06/13 03:40:59;;;;;;;4.05;1.90;;;;;;;18.38;55.29;100199.09;4987552;28;20085;-83
2022/06/13 03:43:29;;;;;;;3.00;1.88;;;;;;;18.39;55.85;100207.03;4997232;28;20030;-82
2022/06/13 03:46:18;;;;;;;5.32;1.90;;;;;;;18.37;55.60;100209.09;4998809;28;20537;-82
2022/06/13 03:48:48;;;;;;;3.30;1.83;;;;;;;18.37;56.18;100211.81;4982029;28;20022;-82
2022/06/13 03:51:17;;;;;;;3.10;1.70;;;;;;;18.41;55.57;100213.13;4993333;28;20047;-82
2022/06/13 03:53:52;;;;;;;3.47;1.98;;;;;;;18.42;56.01;100220.22;4996383;28;20034;-82
2022/06/13 03:56:24;;;;;;;3.17;1.98;;;;;;;18.33;55.99;100215.06;5016870;28;20412;-82
2022/06/13 03:58:55;;;;;;;4.22;2.17;;;;;;;18.34;55.84;100214.88;4995096;28;20122;-83
2022/06/13 04:01:25;;;;;;;3.75;1.92;;;;;;;18.21;55.53;100210.06;4996301;28;20109;-83
2022/06/13 04:03:51;;;;;;;3.60;1.95;;;;;;;18.27;56.63;100221.19;4997934;28;20544;-83
2022/06/13 04:06:37;;;;;;;3.47;1.92;;;;;;;18.28;57.02;100215.59;4988096;28;20037;-83
2022/06/13 04:09:06;;;;;;;5.10;2.35;;;;;;;18.30;56.61;100210.84;4993119;28;20121;-83
2022/06/13 04:11:54;;;;;;;3.83;1.92;;;;;;;18.37;56.37;100219.09;4986896;28;20120;-83
2022/06/13 04:14:47;;;;;;;4.18;1.77;;;;;;;18.44;56.29;100206.50;4996416;28;20084;-82
2022/06/13 04:17:36;;;;;;;3.47;1.92;;;;;;;18.41;56.13;100196.88;4999393;28;20041;-82
2022/06/13 04:20:30;;;;;;;7.78;2.42;;;;;;;18.40;55.40;100200.59;4988421;28;20025;-85
2022/06/13 04:23:08;;;;;;;4.72;2.08;;;;;;;18.39;55.29;100193.50;4999317;28;20038;-82
2022/06/13 04:25:41;;;;;;;4.00;2.20;;;;;;;18.35;54.90;100189.47;4990868;28;20117;-83
2022/06/13 04:28:21;;;;;;;4.70;2.20;;;;;;;18.34;55.98;100197.78;5015677;28;20110;-82
2022/06/13 04:30:46;;;;;;;4.97;2.30;;;;;;;18.29;56.37;100201.03;5000465;28;20472;-83
2022/06/13 04:33:42;;;;;;;4.93;2.33;;;;;;;18.30;55.68;100201.88;4994066;28;20030;-82
2022/06/13 04:36:10;;;;;;;3.53;2.20;;;;;;;18.33;55.92;100202.34;4994901;28;20153;-86
2022/06/13 04:38:42;;;;;;;3.65;2.03;;;;;;;18.37;55.13;100205.53;4998957;28;20109;-83
2022/06/13 04:41:08;;;;;;;4.28;2.17;;;;;;;18.41;55.48;100210.41;4997030;28;20074;-87
2022/06/13 04:43:39;;;;;;;5.82;2.20;;;;;;;18.42;55.52;100211.25;4999933;28;20026;-82
2022/06/13 04:46:08;;;;;;;5.03;2.35;;;;;;;18.27;56.14;100216.63;4999687;28;20050;-82
2022/06/13 04:48:36;;;;;;;4.90;2.38;;;;;;;18.29;55.66;100211.03;4981330;28;20030;-83
2022/06/13 04:51:07;;;;;;;5.57;2.30;;;;;;;18.28;56.26;100221.00;4982953;28;20033;-83
2022/06/13 04:54:05;;;;;;;4.65;2.40;;;;;;;18.32;57.16;100226.91;4998594;28;20120;-82
2022/06/13 04:56:31;;;;;;;6.35;2.67;;;;;;;18.14;57.43;100235.34;5008766;28;20049;-83
2022/06/13 04:58:57;;;;;;;4.50;2.38;;;;;;;18.06;57.02;100238.09;5008815;28;20546;-86
2022/06/13 05:01:29;;;;;;;4.53;2.40;;;;;;;18.17;58.36;100241.25;4987011;28;20065;-83
2022/06/13 05:03:56;;;;;;;4.72;2.38;;;;;;;18.28;57.86;100237.25;4998999;28;20066;-83
2022/06/13 05:06:24;;;;;;;6.05;2.80;;;;;;;18.35;57.49;100238.22;5000832;28;20104;-83
2022/06/13 05:08:57;;;;;;;5.10;2.20;;;;;;;18.35;56.75;100243.63;5016223;28;20034;-82
2022/06/13 05:11:27;;;;;;;3.90;2.60;;;;;;;18.40;57.33;100240.38;5016158;28;20037;-82
2022/06/13 05:13:57;;;;;;;5.10;2.50;;;;;;;18.46;57.20;100232.41;4983660;28;20091;-82
2022/06/13 05:16:52;;;;;;;6.03;2.63;;;;;;;18.48;56.49;100241.19;5018532;28;20036;-82
2022/06/13 05:19:39;;;;;;;4.38;2.58;;;;;;;18.51;57.19;100246.25;5006408;28;20124;-83
2022/06/13 05:22:25;;;;;;;5.25;2.75;;;;;;;18.53;57.00;100251.47;5006544;28;20445;-82
2022/06/13 05:25:05;;;;;;;5.82;2.80;;;;;;;18.54;56.59;100256.72;5007393;28;20036;-82
2022/06/13 05:27:31;;;;;;;6.20;3.00;;;;;;;18.61;57.46;100272.22;5020950;28;20063;-70
2022/06/13 05:29:56;;;;;;;6.68;2.75;;;;;;;18.61;57.36;100259.53;5023328;28;20053;-85
2022/06/13 05:32:22;;;;;;;6.90;3.05;;;;;;;18.63;57.30;100268.34;4997904;28;20091;-85
2022/06/13 05:34:48;;;;;;;7.95;3.00;;;;;;;18.61;57.13;100264.94;4996787;28;20028;-87
2022/06/13 05:37:14;;;;;;;7.18;2.72;;;;;;;18.59;57.45;100268.88;4990682;28;20039;-87
2022/06/13 05:39:40;;;;;;;4.50;2.75;;;;;;;18.55;58.09;100271.94;4996989;28;20690;-87
2022/06/13 05:42:05;;;;;;;5.43;3.03;;;;;;;18.51;58.34;100278.75;4994827;28;20490;-87
2022/06/13 05:44:31;;;;;;;6.13;2.78;;;;;;;18.60;57.59;100275.97;5003465;28;20040;-87
2022/06/13 05:46:56;;;;;;;6.22;2.90;;;;;;;18.64;58.68;100274.59;5003430;28;20042;-87
2022/06/13 05:49:27;;;;;;;7.35;2.90;;;;;;;18.61;58.90;100281.19;4997713;28;20036;-86
2022/06/13 05:51:52;;;;;;;6.57;3.17;;;;;;;18.69;58.72;100283.88;5009757;28;20026;-86
2022/06/13 05:54:18;;;;;;;7.18;2.85;;;;;;;18.90;59.53;100279.63;5004350;28;20030;-86
2022/06/13 05:56:43;;;;;;;6.22;3.10;;;;;;;18.83;58.71;100285.78;4998794;28;20072;-86
2022/06/13 05:59:09;;;;;;;6.70;2.78;;;;;;;18.78;59.62;100280.06;5006618;28;20029;-86
2022/06/13 06:01:36;;;;;;;5.70;2.50;;;;;;;18.85;59.35;100282.88;5004559;28;20039;-86
2022/06/13 06:04:02;;;;;;;7.90;3.38;;;;;;;18.83;59.08;100290.34;5007994;28;20026;-86
2022/06/13 06:06:29;;;;;;;4.80;2.97;;;;;;;18.83;59.32;100282.22;5006905;28;20966;-86
2022/06/13 06:08:55;;;;;;;6.38;2.92;;;;;;;18.90;59.32;100283.16;5005680;28;20535;-86
2022/06/13 06:11:21;;;;;;;7.70;3.35;;;;;;;18.93;59.67;100282.84;4993895;28;20121;-86
2022/06/13 06:13:47;;;;;;;6.78;3.13;;;;;;;18.99;60.16;100290.22;5008010;28;20998;-87
2022/06/13 06:16:15;;;;;;;7.43;3.45;;;;;;;19.06;60.43;100288.47;5009376;28;20033;-87
2022/06/13 06:18:41;;;;;;;;;;;;;;;19.10;60.32;100288.94;5004891;28;20034;-87
2022/06/13 06:21:06;;;;;;;6.88;3.13;;;;;;;19.11;60.49;100294.16;4988251;28;20263;-86
2022/06/13 06:23:31;;;;;;;10.00;4.03;;;;;;;19.12;60.03;100290.44;4989175;28;20032;-89
2022/06/13 06:25:58;;;;;;;8.55;3.80;;;;;;;19.19;60.31;100296.78;5007356;28;20022;-86
2022/06/13 06:28:25;;;;;;;8.13;3.70;;;;;;;19.19;60.40;100293.25;5005539;28;20071;-86
2022/06/13 06:30:53;;;;;;;10.50;4.22;;;;;;;19.22;60.67;100300.16;4995964;28;20026;-86
2022/06/13 06:33:18;;;;;;;7.30;3.70;;;;;;;19.28;60.27;100304.84;5005228;28;20160;-86
2022/06/13 06:35:43;;;;;;;9.60;4.00;;;;;;;19.31;60.70;100305.31;5005361;28;20104;-86
2022/06/13 06:38:09;;;;;;;9.85;3.92;;;;;;;19.28;60.27;100305.69;5020329;28;20038;-86
2022/06/13 06:40:35;;;;;;;10.45;4.20;;;;;;;19.25;60.40;100310.63;5004845;28;20471;-87
2022/06/13 06:43:00;;;;;;;10.25;4.30;;;;;;;19.04;60.98;100312.19;5003767;28;20068;-86
2022/06/13 06:45:26;;;;;;;9.98;4.25;;;;;;;19.01;60.79;100315.28;4989433;28;20038;-86
2022/06/13 06:47:53;;;;;;;9.48;3.63;;;;;;;19.07;60.91;100319.97;5005135;28;20052;-86
2022/06/13 06:50:21;;;;;;;10.23;4.45;;;;;;;19.08;61.94;100327.06;5005096;28;20021;-86
2022/06/13 06:52:47;;;;;;;12.18;4.60;;;;;;;19.05;61.30;100321.19;5005980;28;20037;-86
2022/06/13 07:00:43;;;;;;;8.18;4.32;;;;;;;19.21;61.46;100320.16;5007164;28;20036;-87
2022/06/13 07:03:09;;;;;;;10.77;4.68;;;;;;;19.27;61.98;100322.13;5006611;28;20026;-86
2022/06/13 07:05:34;;;;;;;9.18;4.80;;;;;;;19.33;61.47;100321.41;5012649;28;20034;-86
2022/06/13 07:08:00;;;;;;;11.85;5.70;;;;;;;19.41;61.65;100318.63;5004729;28;20387;-86
2022/06/13 07:10:25;;;;;;;12.05;6.50;;;;;;;19.36;61.51;100326.44;5005133;28;20033;-86
2022/06/13 07:12:50;;;;;;;14.00;5.75;;;;;;;19.40;62.07;100327.78;5004282;28;20104;-86
2022/06/13 07:15:16;;;;;;;14.18;6.32;;;;;;;19.45;62.16;100326.19;5004167;28;20534;-86
2022/06/13 07:17:42;;;;;;;10.75;6.00;;;;;;;19.43;61.92;100327.41;5006313;28;20025;-87
2022/06/13 07:20:09;;;;;;;13.73;6.50;;;;;;;19.41;62.25;100324.88;5006831;28;20057;-87
2022/06/13 07:22:34;;;;;;;12.60;6.93;;;;;;;19.42;62.10;100329.28;4991236;28;20033;-87
2022/06/13 07:24:59;;;;;;;13.73;6.88;;;;;;;19.46;62.03;100329.75;5006258;28;20083;-86
2022/06/13 07:27:25;;;;;;;12.35;6.53;;;;;;;19.44;62.61;100334.53;5003946;28;20026;-87
2022/06/13 07:29:50;;;;;;;12.68;6.20;;;;;;;19.46;62.64;100335.19;5004537;28;20180;-87
2022/06/13 07:32:21;;;;;;;12.00;7.07;;;;;;;19.38;62.32;100340.66;5004998;28;20029;-86
2022/06/13 07:34:50;;;;;;;12.20;7.05;;;;;;;19.44;62.38;100345.38;4995469;28;20395;-86
2022/06/13 07:38:16;;;;;;;;;;;;;;;19.37;62.04;100347.97;4996823;28;20034;-86
2022/06/13 07:40:03;;;;;;;14.75;6.97;;;;;;;19.42;62.25;100344.72;5008026;28;19916;-87
2022/06/13 07:42:33;;;;;;;14.45;7.32;;;;;;;19.41;62.50;100354.72;5008638;28;20032;-87
2022/06/13 07:44:58;;;;;;;14.18;7.97;;;;;;;19.41;62.76;100356.59;5027035;28;20160;-86
2022/06/13 07:47:24;;;;;;;17.00;7.85;;;;;;;19.35;63.12;100352.72;5001609;28;20117;-87
2022/06/13 07:49:49;;;;;;;14.98;8.35;;;;;;;19.24;63.89;100363.19;4994753;28;20090;-86
2022/06/13 07:52:14;;;;;;;15.05;7.97;;;;;;;19.27;63.50;100360.09;4985177;28;20038;-86
2022/06/13 07:54:39;;;;;;;13.98;7.63;;;;;;;19.31;63.54;100356.00;5003261;28;20034;-86
2022/06/13 07:57:05;;;;;;;16.35;7.38;;;;;;;19.35;63.30;100360.03;4987360;28;20389;-86
2022/06/13 07:59:30;;;;;;;16.52;7.03;;;;;;;19.17;64.19;100366.63;4995290;28;20033;-85
2022/06/13 08:01:57;;;;;;;12.13;6.53;;;;;;;19.25;63.45;100360.28;4986481;28;20036;-86
2022/06/13 08:04:22;;;;;;;13.65;6.53;;;;;;;19.35;62.74;100363.59;4995101;28;20083;-87
2022/06/13 08:06:47;;;;;;;12.55;6.18;;;;;;;19.20;62.80;100365.44;5004780;28;20041;-86
2022/06/13 08:09:17;;;;;;;13.77;6.30;;;;;;;19.06;62.29;100358.94;4988186;28;20022;-87
2022/06/13 08:11:46;;;;;;;10.48;5.35;;;;;;;19.18;62.85;100360.19;5002344;28;20063;-87
2022/06/13 08:14:11;;;;;;;11.77;5.28;;;;;;;19.25;62.23;100359.44;5002064;28;20060;-87
2022/06/13 08:16:37;;;;;;;10.02;4.60;;;;;;;19.38;61.99;100362.38;5001172;28;20107;-88
2022/06/13 08:19:03;;;;;;;10.35;4.68;;;;;;;19.33;61.27;100365.63;5004872;28;20063;-87
2022/06/13 08:21:29;;;;;;;8.57;4.38;;;;;;;19.34;61.76;100364.59;5003729;28;20124;-87
2022/06/13 08:23:55;;;;;;;10.13;4.57;;;;;;;19.24;60.75;100365.91;4984831;28;20021;-86
2022/06/13 08:26:20;;;;;;;9.68;4.20;;;;;;;19.26;60.72;100369.28;5004705;28;20029;-89
2022/06/13 08:28:46;;;;;;;11.98;3.78;;;;;;;19.16;59.59;100373.09;5002839;28;20036;-87
2022/06/13 08:31:13;;;;;;;12.18;4.63;;;;;;;19.26;59.72;100370.13;4999430;28;20112;-87
2022/06/13 08:33:39;;;;;;;9.70;4.15;;;;;;;19.19;60.03;100374.59;5000591;28;20072;-86
2022/06/13 08:36:08;;;;;;;8.30;3.75;;;;;;;19.27;60.04;100377.22;4987830;28;20528;-87
2022/06/13 08:38:33;;;;;;;10.40;4.00;;;;;;;19.40;60.16;100376.63;5003377;28;20032;-87
2022/06/13 08:41:16;;;;;;;10.18;3.70;;;;;;;19.53;59.38;100371.41;4994441;28;20014;-87
2022/06/13 08:44:00;;;;;;;10.65;3.50;;;;;;;19.47;58.85;100374.84;5004172;28;20029;-87
2022/06/13 08:46:35;;;;;;;9.45;3.30;;;;;;;19.38;58.14;100384.91;5010693;28;20030;-87
2022/06/13 08:49:14;;;;;;;5.53;2.67;;;;;;;19.35;57.52;100379.00;5004109;28;20029;-87
2022/06/13 08:51:49;;;;;;;5.25;2.45;;;;;;;19.45;56.95;100385.88;5001972;28;20037;-87
2022/06/13 08:54:19;;;;;;;6.78;2.60;;;;;;;19.40;55.22;100390.19;5008366;28;20518;-89
2022/06/13 08:56:45;;;;;;;6.75;2.65;;;;;;;19.43;56.07;100389.81;4989713;28;20041;-86
2022/06/13 08:59:22;;;;;;;6.50;3.15;;;;;;;19.52;56.97;100390.56;4991739;28;20041;-84
2022/06/13 09:02:19;;;;;;;6.57;2.87;;;;;;;19.61;56.69;100382.19;5013052;28;20482;-84
2022/06/13 09:04:52;;;;;;;7.63;3.05;;;;;;;19.60;55.98;100385.94;5009959;28;20030;-84
2022/06/13 09:07:23;;;;;;;8.05;3.03;;;;;;;19.49;57.12;100389.91;4997355;28;20052;-83
2022/06/13 09:10:07;;;;;;;8.73;2.90;;;;;;;19.41;56.35;100389.16;5005592;28;20021;-84
2022/06/13 09:12:55;;;;;;;5.80;2.53;;;;;;;19.53;57.07;100398.56;5022438;28;20022;-88
2022/06/13 09:15:24;;;;;;;6.70;2.33;;;;;;;19.64;55.87;100389.13;5009732;28;20026;-88
2022/06/13 09:17:55;;;;;;;6.82;2.08;;;;;;;19.60;54.35;100398.66;5014304;28;20040;-89
2022/06/13 09:20:38;;;;;;;8.57;2.13;;;;;;;19.62;54.44;100402.88;5015220;28;20092;-89
2022/06/13 09:23:19;;;;;;;7.03;2.33;;;;;;;19.59;55.34;100408.66;5005241;28;20037;-89
2022/06/13 09:26:23;;;;;;;6.75;2.70;;;;;;;19.65;55.49;100404.38;5007038;28;20115;-89
2022/06/13 09:28:54;;;;;;;4.63;2.08;;;;;;;19.76;55.38;100410.16;4943491;29;20071;-89
2022/06/13 09:31:31;;;;;;;6.13;2.35;;;;;;;19.74;55.63;100405.97;4988338;28;20685;-89
2022/06/13 09:34:20;;;;;;;9.73;3.00;;;;;;;19.66;55.72;100406.06;5006367;28;20032;-89
2022/06/13 09:37:08;;;;;;;5.15;2.65;;;;;;;19.66;55.81;100409.59;5015170;28;20049;-90
2022/06/13 09:39:33;;;;;;;7.80;3.17;;;;;;;19.61;56.34;100414.75;5006321;28;20053;-90
2022/06/13 09:42:27;;;;;;;8.05;2.80;;;;;;;19.75;57.09;100421.22;5005478;28;20065;-89
2022/06/13 09:45:30;;;;;;;6.63;2.88;;;;;;;19.65;56.06;100423.34;5015291;28;20021;-90
2022/06/13 09:48:13;;;;;;;12.00;2.65;;;;;;;19.62;55.62;100426.44;5006344;28;20061;-89
2022/06/13 09:50:56;;;;;;;8.55;2.67;;;;;;;19.47;56.18;100427.25;5020523;28;20030;-90
2022/06/13 09:53:28;;;;;;;9.02;2.97;;;;;;;19.47;56.26;100427.25;5004386;28;20057;-91
2022/06/13 09:56:08;;;;;;;8.73;2.92;;;;;;;19.41;56.54;100421.72;5023119;28;20148;-89
2022/06/13 09:58:34;;;;;;;8.70;3.00;;;;;;;19.37;56.99;100421.19;5022554;28;20027;-70
2022/06/13 10:01:02;;;;;;;9.83;2.73;;;;;;;19.33;56.38;100421.75;5022618;28;20025;-88
2022/06/13 10:03:58;;;;;;;8.13;3.10;;;;;;;19.33;56.57;100419.88;5005124;28;20292;-85
2022/06/13 10:06:43;;;;;;;6.55;2.50;;;;;;;19.42;56.60;100426.09;5012832;28;20124;-84
2022/06/13 10:09:22;;;;;;;8.43;2.70;;;;;;;19.34;55.36;100437.00;5006016;28;20030;-84
2022/06/13 10:11:59;;;;;;;;;;;;;;;19.26;54.43;100442.50;5022726;28;20542;-83
2022/06/13 10:14:43;;;;;;;6.50;2.50;;;;;;;19.17;56.22;100439.00;5022547;28;19917;-83
2022/06/13 10:17:20;;;;;;;8.75;2.97;;;;;;;19.33;57.10;100441.59;4996278;28;20038;-85
2022/06/13 10:20:11;;;;;;;6.03;2.65;;;;;;;19.40;57.25;100449.84;5002702;28;20026;-85
2022/06/13 10:23:02;;;;;;;7.05;2.97;;;;;;;19.31;55.76;100451.78;5012385;28;20080;-85
2022/06/13 10:25:30;;;;;;;9.25;2.47;;;;;;;19.39;57.38;100459.88;5023647;28;20029;-84
2022/06/13 10:28:20;;;;;;;8.18;2.85;;;;;;;19.45;56.69;100445.56;5011655;28;20030;-84
2022/06/13 10:30:53;;;;;;;7.78;3.00;;;;;;;19.48;56.48;100447.06;4996723;28;20467;-85
2022/06/13 10:33:51;;;;;;;8.30;3.00;;;;;;;19.51;56.82;100444.00;5002168;28;20025;-85
2022/06/13 10:36:19;;;;;;;;;;;;;;;19.61;56.61;100439.16;5004837;28;20037;-86
2022/06/13 10:38:59;;;;;;;6.38;2.50;;;;;;;19.64;51.66;100444.22;5011455;28;20008;-83
2022/06/13 10:41:26;;;;;;;5.70;2.22;;;;;;;19.50;52.49;100431.44;5022806;28;20026;-85
2022/06/13 10:43:52;;;;;;;7.35;2.30;;;;;;;19.48;52.79;100441.66;5004242;28;20112;-85
2022/06/13 10:46:17;;;;;;;7.32;2.50;;;;;;;19.56;52.74;100455.16;4994209;28;20179;-85
2022/06/13 10:48:50;;;;;;;6.07;2.63;;;;;;;19.41;51.78;100446.13;4987647;28;20112;-86
2022/06/13 10:51:15;;;;;;;6.63;2.35;;;;;;;19.45;51.96;100440.16;5000511;28;20021;-85
2022/06/13 10:53:50;;;;;;;6.93;2.75;;;;;;;19.60;51.50;100434.78;4992002;28;20712;-85
2022/06/13 10:56:24;;;;;;;5.38;2.25;;;;;;;19.78;52.03;100453.41;5002832;28;20140;-84
2022/06/13 10:58:53;;;;;;;4.82;1.98;;;;;;;19.82;49.83;100435.72;5010740;28;20034;-81
2022/06/13 11:01:19;;;;;;;;;;;;;;;19.91;50.67;100431.91;5002427;28;20022;-82
2022/06/13 11:04:06;;;;;;;4.95;2.03;;;;;;;19.91;50.00;100425.66;5005032;28;19917;-81
2022/06/13 11:06:46;;;;;;;7.88;2.47;;;;;;;19.98;50.04;100432.84;5002169;28;20058;-83
2022/06/13 11:09:36;;;;;;;6.68;2.30;;;;;;;19.81;50.39;100431.31;5001688;28;20037;-86
2022/06/13 11:12:05;;;;;;;3.47;2.05;;;;;;;19.77;50.05;100435.44;5005480;28;20120;-85
2022/06/13 11:23:00;;;;;;;5.20;2.08;;;;;;;19.97;51.30;100431.16;5005615;28;20403;-85
2022/06/13 11:25:29;;;;;;;5.50;2.30;;;;;;;20.08;51.40;100438.84;5004905;28;20383;-80
2022/06/13 11:28:11;;;;;;;6.22;1.90;;;;;;;20.12;52.14;100439.31;5007566;28;20033;-83
2022/06/13 11:30:40;;;;;;;5.97;2.10;;;;;;;20.11;50.83;100437.63;5019664;28;20037;-81
2022/06/13 11:33:06;;;;;;;5.18;2.17;;;;;;;20.00;49.72;100438.09;5005899;28;20076;-81
2022/06/13 11:35:40;;;;;;;7.70;2.30;;;;;;;19.95;50.57;100435.94;5018925;28;20488;-82
2022/06/13 11:38:27;;;;;;;4.65;2.25;;;;;;;19.93;51.08;100429.88;5018013;28;20041;-82
2022/06/13 11:41:05;;;;;;;4.78;2.20;;;;;;;19.92;51.82;100433.59;5005022;28;20038;-81
2022/06/13 11:43:35;;;;;;;7.25;2.53;;;;;;;19.99;51.49;100439.13;5020418;28;20025;-82
2022/06/13 11:46:05;;;;;;;7.18;2.22;;;;;;;20.02;51.44;100438.75;5002511;28;20411;-81
2022/06/13 11:48:31;;;;;;;5.80;2.17;;;;;;;20.08;51.07;100440.72;4998667;28;20025;-82
2022/06/13 11:50:59;;;;;;;6.00;2.40;;;;;;;20.05;51.59;100449.25;4989539;28;20220;-82
2022/06/13 11:53:36;;;;;;;5.55;2.20;;;;;;;20.14;51.50;100448.09;5018117;28;20130;-81
2022/06/13 11:56:06;;;;;;;6.25;2.20;;;;;;;20.10;51.89;100457.66;4998608;28;20115;-82
2022/06/13 11:58:32;;;;;;;4.43;1.85;;;;;;;20.21;52.43;100450.91;4981417;28;20053;-82
2022/06/13 12:01:23;;;;;;;4.43;2.20;;;;;;;20.28;50.79;100455.41;5000366;28;20034;-82
2022/06/13 12:04:02;;;;;;;5.18;1.90;;;;;;;20.37;51.60;100458.88;4989553;28;20034;-82
2022/06/13 12:06:53;;;;;;;3.65;1.50;;;;;;;20.46;52.10;100451.50;5001765;28;20496;-82
2022/06/13 12:09:26;;;;;;;4.90;1.70;;;;;;;20.48;51.24;100444.00;5004663;28;20042;-82
2022/06/13 12:12:00;;;;;;;3.40;1.60;;;;;;;20.38;49.60;100441.56;5001008;28;20053;-82